Tuesday, May 21, 2019, 3:31 PM EDT
Back to Local

KGSB, Seymour-johnson Air Force Base

Location: Goldsboro, NC, United States Lat: 35.333
Local Time: 3:31 PM EDT (19:31 GMT) Lon: -77.967
Time Zone: US/Eastern Elev: 108 ft

Show me the last for .
Show Decoded

2019-05-21 14:56 METAR KGSB 211856Z AUTO 25007KT 10SM CLR 32/13 A2993 RMK AO2 SLP137 T03170125 $
                 =
2019-05-21 13:56 METAR KGSB 211756Z AUTO 01007KT 10SM CLR 31/13 A2995 RMK AO2 SLP144 T03070126
                 10312 20229 58006 $ =
2019-05-21 12:56 METAR KGSB 211656Z 35009KT 7SM CLR 30/13 A2996 RMK AO2A SLP148 T03030127 $ =
2019-05-21 11:56 METAR KGSB 211556Z AUTO 35007KT 10SM CLR 29/14 A2997 RMK AO2 SLP151 T02900144 $
                 =
2019-05-21 10:56 METAR KGSB 211456Z AUTO 35008KT 10SM CLR 28/15 A2997 RMK AO2 SLP151 T02800153
                 50005 $ =
2019-05-21 09:56 METAR KGSB 211356Z AUTO 01007KT 10SM CLR 27/18 A2996 RMK AO2 SLP148 T02670177 $
                 =
2019-05-21 08:56 METAR KGSB 211256Z 33005KT 10SM CLR 25/21 A2996 RMK AO2A SLP148 T02530209 $ =
2019-05-21 08:08 METAR KGSB 211208Z 27005KT 10SM SCT005 24/22 A2995 RMK AO2A SLP144 $ =
2019-05-21 07:56 METAR KGSB 211156Z 26005KT 10SM BKN005 23/22 A2996 RMK AO2A BKN V OVC SLP148
                 70018 T02280219 10228 20210 52015 $ =
2019-05-21 07:23 METAR KGSB 211123Z 26005KT 10SM BKN005 22/22 A2994 RMK AO2A BKN V OVC SLP141 $ =
2019-05-21 07:11 METAR KGSB 211111Z AUTO 25004KT 10SM OVC006 22/22 A2994 RMK AO2 SLP141 $ =
2019-05-21 06:56 METAR KGSB 211056Z 25004KT 10SM BKN007 22/22 A2994 RMK AO2A OVC V BKN SLP141
                 T02150215 $ =
2019-05-21 06:44 METAR KGSB 211044Z AUTO 24005KT 10SM BKN007 21/21 A2993 RMK AO2 SLP137 $ =
2019-05-21 06:32 METAR KGSB 211032Z AUTO 26003KT 9SM BKN008 21/21 A2993 RMK AO2 BKN V FEW SLP137
                 $ =
2019-05-21 05:56 METAR KGSB 210956Z AUTO 00000KT 10SM CLR 21/21 A2992 RMK AO2 VIS 1 1/2 RWY08
                 SLP134 T02110211 $ =
2019-05-21 04:56 METAR KGSB 210856Z AUTO 23004KT 10SM FEW075 FEW095 22/21 A2991 RMK AO2 SLP130
                 T02170212 51002 $ =
2019-05-21 03:56 METAR KGSB 210756Z AUTO 00000KT 10SM FEW010 SCT050 SCT080 BKN090 BKN130 22/21
                 A2990 RMK AO2 SLP127 T02210214 $ =
2019-05-21 02:56 METAR KGSB 210656Z AUTO 00000KT 10SM FEW060 22/21 A2990 RMK AO2 SLP127 T02170210
                 $ =
2019-05-21 01:56 METAR KGSB 210556Z AUTO 00000KT 10SM CLR 21/21 A2990 RMK AO2 SLP127 60018
                 T02140205 10292 20207 57012 $ =
2019-05-21 00:56 METAR KGSB 210456Z AUTO 00000KT 10SM OVC120 21/20 A2992 RMK AO2 SLP134 T02130197
                 403240199 $ =
2019-05-20 23:56 METAR KGSB 210356Z AUTO 21003KT 10SM BKN120 21/20 A2993 RMK AO2 RAE13 SLP137
                 P0001 T02090195 $ =
2019-05-20 23:13 METAR KGSB 210313Z AUTO 17006KT 10SM SCT085 BKN110 BKN130 21/19 A2993 RMK AO2
                 RAE13 SLP137 $ =
2019-05-20 22:56 METAR KGSB 210256Z 16009KT 10SM -RA OVC070 21/19 A2994 RMK AO2A TSE00 SLP141
                 P0009 60017 T02080194 50019 $ =
2019-05-20 22:04 METAR KGSB 210204Z 22010KT 3SM -RA BR FEW030 BKN060 OVC150 22/20 A2995 RMK AO2A
                 TSE00 SLP144 $ =
2019-05-20 21:58 METAR KGSB 210158Z 21010KT 4SM -TSRA BR FEW030 OVC065 22/20 A2995 RMK AO2A PK
                 WND 25031/0140 RAB0146 TSB0129 SLP144 P0011 60011 T02180201 53021 $ =
2019-05-20 21:44 METAR KGSB 210144Z 24019G31KT 7SM -TSRA SCT029CB SCT070 BKN150 26/19 A2994 RMK
                 AO2A TSB29 SLP141 $ =
2019-05-20 21:40 METAR KGSB 210140Z 24023G31KT 10SM TS FEW030 SCT070CB BKN150 27/21 A2993 RMK
                 AO2A WSHFT 30 TSB29 PRESRR SLP137 $ =
2019-05-20 21:29 METAR KGSB 210129Z 19009G17KT 10SM TS SCT070CB BKN160 27/21 A2991 RMK SLP131 $ =
2019-05-20 21:28 METAR KGSB 210128Z 19011G17KT 10SM VCTS SCT075CB 27/21 A2990 RMK SLP127 $ =
2019-05-20 20:56 METAR KGSB 210056Z AUTO 19005KT 10SM SCT080 27/19 A2989 RMK AO2 SLP124 T02740186
                 $ =
2019-05-20 19:56 METAR KGSB 202356Z AUTO 22006KT 10SM CLR 29/18 A2988 RMK AO2 SLP120 T02930178
                 10324 20293 $ =
2019-05-20 18:56 METAR KGSB 202256Z AUTO 23010KT 10SM SCT095 31/17 A2989 RMK AO2 SLP124 T03070170
                 $ =
2019-05-20 16:56 METAR KGSB 202056Z AUTO 23011KT 10SM CLR 32/16 A2989 RMK AO2 SLP124 T03210160
                 57026 $ =
2019-05-20 15:56 METAR KGSB 201956Z AUTO 21010KT 10SM FEW050 32/19 A2991 RMK AO2 SLP131 T03180191
                 $ =

Support USWX by starting your Amazon purchase here.